createdAt,value
2023-02-14T00:00:48.721Z,67.38
2023-02-14T00:03:15.846Z,70.05
2023-02-14T00:05:42.488Z,72.20
2023-02-14T00:08:09.104Z,69.83
2023-02-14T00:10:35.881Z,69.18
2023-02-14T00:13:02.546Z,63.53
2023-02-14T00:15:29.206Z,78.78
2023-02-14T00:17:59.883Z,66.47
2023-02-14T00:20:27.859Z,70.73
2023-02-14T00:22:54.811Z,62.33
2023-02-14T00:25:21.490Z,66.18
2023-02-14T00:27:48.156Z,87.90
2023-02-14T00:30:14.893Z,65.75
2023-02-14T00:32:42.814Z,71.03
2023-02-14T00:35:10.789Z,79.22
2023-02-14T00:37:37.784Z,61.42
2023-02-14T00:40:06.082Z,54.03
2023-02-14T00:42:32.725Z,63.28
2023-02-14T00:44:59.354Z,80.67
2023-02-14T00:47:26.105Z,64.97
2023-02-14T00:49:52.765Z,67.35
2023-02-14T00:52:19.442Z,59.67
2023-02-14T00:54:46.039Z,65.38
2023-02-14T00:57:12.606Z,56.43
2023-02-14T00:59:39.338Z,51.58
2023-02-14T01:02:06.261Z,71.82
2023-02-14T01:04:32.984Z,57.97
2023-02-14T01:06:59.615Z,60.33
2023-02-14T01:09:26.255Z,69.53
2023-02-14T01:11:52.963Z,70.50
2023-02-14T01:14:19.613Z,67.65
2023-02-14T01:16:46.402Z,121.63
2023-02-14T01:19:13.332Z,71.60
2023-02-14T01:21:39.956Z,62.27
2023-02-14T01:24:07.874Z,67.00
2023-02-14T01:26:35.265Z,63.13
2023-02-14T01:29:02.971Z,60.85
2023-02-14T01:31:32.081Z,58.28
2023-02-14T01:33:59.828Z,60.50
2023-02-14T01:36:32.418Z,57.03
2023-02-14T01:39:02.337Z,58.05
2023-02-14T01:41:32.371Z,66.95
2023-02-14T01:44:27.013Z,65.20
2023-02-14T01:46:54.457Z,51.73
2023-02-14T01:49:35.447Z,56.38
2023-02-14T01:52:12.557Z,156.90
2023-02-14T01:54:43.411Z,144.80
2023-02-14T01:57:14.180Z,49.35
2023-02-14T01:59:47.410Z,39.73
2023-02-14T02:02:14.097Z,56.08
2023-02-14T02:04:45.608Z,39.92
2023-02-14T02:07:20.849Z,73.40
2023-02-14T02:09:53.272Z,84.70
2023-02-14T02:12:20.383Z,56.73
2023-02-14T02:14:48.593Z,51.78
2023-02-14T02:17:34.587Z,43.47
2023-02-14T02:20:10.158Z,49.78
2023-02-14T02:23:13.572Z,65.97
2023-02-14T02:26:07.599Z,101.23
2023-02-14T02:29:11.697Z,154.93
2023-02-14T02:31:47.373Z,112.28
2023-02-14T02:34:55.031Z,54.80
2023-02-14T02:37:36.366Z,127.68
2023-02-14T02:40:28.496Z,133.80
2023-02-14T02:43:15.155Z,125.80
2023-02-14T02:46:16.860Z,147.40
2023-02-14T02:49:37.579Z,285.95
2023-02-14T02:52:29.571Z,125.15
2023-02-14T02:55:06.583Z,244.73
2023-02-14T02:57:37.543Z,245.18
2023-02-14T03:00:07.605Z,179.20
2023-02-14T03:03:10.002Z,280.23
2023-02-14T03:05:37.681Z,155.93
2023-02-14T03:08:05.744Z,275.60
2023-02-14T03:10:36.161Z,94.72
2023-02-14T03:13:24.575Z,55.33
2023-02-14T03:16:16.378Z,43.95
2023-02-14T03:19:28.553Z,123.13
2023-02-14T03:22:13.634Z,81.73
2023-02-14T03:24:45.997Z,63.08
2023-02-14T03:27:24.959Z,190.80
2023-02-14T03:30:09.835Z,159.05
2023-02-14T03:32:45.475Z,131.65
2023-02-14T03:35:30.766Z,141.60
2023-02-14T03:38:11.392Z,165.77
2023-02-14T03:40:54.656Z,142.05
2023-02-14T03:43:39.107Z,160.95
2023-02-14T03:46:20.920Z,72.22
2023-02-14T03:48:50.340Z,121.67
2023-02-14T03:51:19.960Z,198.65
2023-02-14T03:53:50.891Z,72.45
2023-02-14T03:56:34.573Z,94.13
2023-02-14T03:59:09.124Z,75.22
2023-02-14T04:01:58.323Z,79.47
2023-02-14T04:04:28.588Z,23.75
2023-02-14T04:06:55.441Z,27.20
2023-02-14T04:09:22.135Z,66.82
2023-02-14T04:11:50.384Z,35.65
2023-02-14T04:14:17.842Z,89.47
2023-02-14T04:17:03.065Z,74.15
2023-02-14T04:19:29.670Z,53.80
2023-02-14T04:21:56.295Z,105.32
2023-02-14T04:24:22.861Z,113.07
2023-02-14T04:27:10.123Z,93.80
2023-02-14T04:29:50.423Z,56.72
2023-02-14T04:32:20.372Z,81.90
2023-02-14T04:34:47.364Z,164.63
2023-02-14T04:37:16.164Z,146.27
2023-02-14T04:39:42.812Z,173.70
2023-02-14T04:42:09.688Z,160.15
2023-02-14T04:44:38.152Z,105.53
2023-02-14T04:47:05.327Z,79.00
2023-02-14T04:49:32.294Z,71.18
2023-02-14T04:51:58.968Z,33.67
2023-02-14T04:54:25.597Z,27.33
2023-02-14T04:56:52.249Z,20.38
2023-02-14T04:59:18.913Z,20.48
2023-02-14T05:01:45.524Z,24.08
2023-02-14T05:04:12.168Z,21.30
2023-02-14T05:06:38.825Z,24.00
2023-02-14T05:09:05.739Z,24.45
2023-02-14T05:11:32.772Z,27.85
2023-02-14T05:13:59.384Z,26.17
2023-02-14T05:16:26.218Z,22.27
2023-02-14T05:18:52.902Z,24.05
2023-02-14T05:21:19.489Z,22.35
2023-02-14T05:23:46.491Z,23.08
2023-02-14T05:26:13.217Z,26.25
2023-02-14T05:28:40.979Z,26.67
2023-02-14T05:31:08.749Z,26.80
2023-02-14T05:33:35.481Z,26.83
2023-02-14T05:36:02.744Z,25.00
2023-02-14T05:38:30.681Z,25.08
2023-02-14T05:40:57.415Z,30.83
2023-02-14T05:43:24.204Z,23.63
2023-02-14T05:45:50.858Z,29.40
2023-02-14T05:48:17.899Z,42.63
2023-02-14T05:50:45.478Z,34.45
2023-02-14T05:53:13.216Z,91.63
2023-02-14T05:55:40.122Z,83.15
2023-02-14T05:58:07.384Z,42.30
2023-02-14T06:00:34.392Z,33.28
2023-02-14T06:03:01.165Z,33.20
2023-02-14T06:05:27.810Z,36.40
2023-02-14T06:07:54.536Z,86.30
2023-02-14T06:10:23.029Z,46.17
2023-02-14T06:12:51.680Z,100.13
2023-02-14T06:15:18.936Z,55.45
2023-02-14T06:17:47.087Z,205.40
2023-02-14T06:20:13.817Z,62.58
2023-02-14T06:22:40.408Z,138.88
2023-02-14T06:25:07.583Z,141.57
2023-02-14T06:27:34.286Z,130.75
2023-02-14T06:30:00.956Z,85.57
2023-02-14T06:32:27.683Z,64.72
2023-02-14T06:34:54.333Z,148.20
2023-02-14T06:37:21.070Z,60.15
2023-02-14T06:39:47.721Z,95.25
2023-02-14T06:42:14.345Z,146.83
2023-02-14T06:44:41.020Z,221.23
2023-02-14T06:47:08.516Z,268.17
2023-02-14T06:49:35.155Z,167.95
2023-02-14T06:52:02.005Z,117.97
2023-02-14T06:54:28.622Z,247.50
2023-02-14T06:56:55.293Z,115.30
2023-02-14T06:59:22.040Z,236.35
2023-02-14T07:01:48.686Z,275.17
2023-02-14T07:04:15.714Z,121.50
2023-02-14T07:06:42.298Z,142.43
2023-02-14T07:09:08.929Z,92.97
2023-02-14T07:11:35.618Z,54.55
2023-02-14T07:14:02.204Z,135.75
2023-02-14T07:16:28.839Z,211.95
2023-02-14T07:18:55.411Z,197.37
2023-02-14T07:21:22.015Z,147.55
2023-02-14T07:23:49.997Z,165.77
2023-02-14T07:26:18.102Z,99.50
2023-02-14T07:28:51.735Z,84.35
2023-02-14T07:31:19.967Z,57.77
2023-02-14T07:33:46.760Z,110.72
2023-02-14T07:36:13.405Z,59.25
2023-02-14T07:38:40.060Z,131.82
2023-02-14T07:41:06.906Z,114.28
2023-02-14T07:43:34.480Z,59.83
2023-02-14T07:46:02.782Z,117.95
2023-02-14T07:48:32.492Z,55.00
2023-02-14T07:51:00.693Z,40.75
2023-02-14T07:53:27.579Z,83.95
2023-02-14T07:55:54.292Z,51.50
2023-02-14T07:58:20.952Z,46.65
2023-02-14T08:00:47.662Z,39.97
2023-02-14T08:03:15.144Z,54.03
2023-02-14T08:05:41.869Z,138.23
2023-02-14T08:08:08.689Z,125.13
2023-02-14T08:10:35.332Z,78.60
2023-02-14T08:13:03.427Z,211.13
2023-02-14T08:15:53.002Z,153.52
2023-02-14T08:18:23.056Z,95.45
2023-02-14T08:20:50.991Z,190.03
2023-02-14T08:23:18.892Z,199.88
2023-02-14T08:25:46.202Z,190.98
2023-02-14T08:28:13.744Z,154.35
2023-02-14T08:30:40.926Z,162.27
2023-02-14T08:33:07.666Z,73.00
2023-02-14T08:35:34.920Z,40.45
2023-02-14T08:38:01.697Z,72.97
2023-02-14T08:40:28.582Z,34.90
2023-02-14T08:42:55.348Z,28.50
2023-02-14T08:45:22.344Z,31.23
2023-02-14T08:47:48.957Z,32.15
2023-02-14T08:50:17.352Z,30.20
2023-02-14T08:52:44.441Z,34.15
2023-02-14T08:55:12.672Z,31.95
2023-02-14T08:57:39.770Z,31.73
2023-02-14T09:00:07.447Z,32.20
2023-02-14T09:02:34.409Z,38.97
2023-02-14T09:05:01.080Z,32.20
2023-02-14T09:07:27.905Z,35.28
2023-02-14T09:09:54.565Z,36.77
2023-02-14T09:12:21.310Z,38.33
2023-02-14T09:14:47.986Z,29.23
2023-02-14T09:17:16.019Z,29.65
2023-02-14T09:19:42.901Z,32.47
2023-02-14T09:22:11.196Z,32.73
2023-02-14T09:24:38.985Z,35.63
2023-02-14T09:27:06.494Z,30.42
2023-02-14T09:29:33.612Z,33.15
2023-02-14T09:32:01.911Z,28.30
2023-02-14T09:34:29.352Z,34.73
2023-02-14T09:37:14.775Z,28.52
2023-02-14T09:39:41.422Z,31.70
2023-02-14T09:42:32.587Z,32.10
2023-02-14T09:45:26.832Z,35.03
2023-02-14T09:48:03.877Z,36.60
2023-02-14T09:50:40.231Z,35.50
2023-02-14T09:53:19.875Z,35.53
2023-02-14T09:55:53.920Z,33.20
2023-02-14T09:58:29.088Z,36.35
2023-02-14T10:01:12.674Z,33.33
2023-02-14T10:04:07.427Z,36.58
2023-02-14T10:07:09.324Z,34.80
2023-02-14T10:09:48.042Z,34.58
2023-02-14T10:12:31.744Z,30.10
2023-02-14T10:15:02.138Z,32.73
2023-02-14T10:17:44.944Z,31.58
2023-02-14T10:20:22.029Z,32.38
2023-02-14T10:23:14.508Z,30.33
2023-02-14T10:25:48.762Z,33.63
2023-02-14T10:28:22.000Z,29.37
2023-02-14T10:31:14.848Z,29.38
2023-02-14T10:33:49.344Z,29.73
2023-02-14T10:36:29.497Z,32.42
2023-02-14T10:39:32.005Z,33.05
2023-02-14T10:42:18.587Z,29.63
2023-02-14T10:44:53.004Z,31.27
2023-02-14T10:47:25.565Z,26.67
2023-02-14T10:50:18.706Z,28.08
2023-02-14T10:52:48.283Z,28.27
2023-02-14T10:55:31.545Z,29.57
2023-02-14T10:58:01.422Z,33.08
2023-02-14T11:00:34.331Z,26.67
2023-02-14T11:03:06.246Z,30.33
2023-02-14T11:05:48.444Z,30.25
2023-02-14T11:08:23.907Z,27.07
2023-02-14T11:10:51.458Z,29.63
2023-02-14T11:13:28.711Z,30.88
2023-02-14T11:15:59.969Z,28.75
2023-02-14T11:18:32.748Z,29.08
2023-02-14T11:21:07.254Z,28.63
2023-02-14T11:23:36.737Z,27.10
2023-02-14T11:26:07.397Z,28.60
2023-02-14T11:28:34.860Z,28.30
2023-02-14T11:31:02.405Z,26.98
2023-02-14T11:33:40.402Z,31.57
2023-02-14T11:36:16.717Z,27.48
2023-02-14T11:38:45.202Z,31.45
2023-02-14T11:41:14.896Z,31.13
2023-02-14T11:43:43.996Z,30.45
2023-02-14T11:46:52.188Z,27.90
2023-02-14T11:49:32.584Z,29.35
2023-02-14T11:52:10.207Z,27.27
2023-02-14T11:54:40.214Z,29.70
2023-02-14T11:57:32.478Z,29.10
2023-02-14T12:00:02.359Z,28.70
2023-02-14T12:02:36.331Z,27.33
2023-02-14T12:05:31.389Z,29.27
2023-02-14T12:08:02.125Z,27.05
2023-02-14T12:10:35.167Z,26.08
2023-02-14T12:13:10.176Z,29.83
2023-02-14T12:15:52.098Z,27.33
2023-02-14T12:18:43.990Z,30.17
2023-02-14T12:21:37.005Z,31.38
2023-02-14T12:24:07.365Z,28.73
2023-02-14T12:26:57.033Z,27.00
2023-02-14T12:29:36.838Z,27.55
2023-02-14T12:32:22.605Z,27.98
2023-02-14T12:34:50.396Z,27.05
2023-02-14T12:37:26.677Z,26.60
2023-02-14T12:40:16.190Z,30.00
2023-02-14T12:42:48.536Z,28.15
2023-02-14T12:45:33.700Z,27.17
2023-02-14T12:48:27.410Z,28.73
2023-02-14T12:51:30.398Z,30.35
2023-02-14T12:54:15.902Z,27.63
2023-02-14T12:57:07.767Z,27.63
2023-02-14T12:59:41.642Z,28.38
2023-02-14T13:02:57.407Z,28.60
2023-02-14T13:05:37.924Z,30.25
2023-02-14T13:08:48.009Z,27.07
2023-02-14T13:11:37.218Z,28.60
2023-02-14T13:14:09.582Z,29.08
2023-02-14T13:16:54.513Z,26.23
2023-02-14T13:19:29.948Z,27.40
2023-02-14T13:21:59.785Z,28.33
2023-02-14T13:24:34.787Z,25.67
2023-02-14T13:27:06.911Z,29.13
2023-02-14T13:30:00.653Z,31.65
2023-02-14T13:32:33.035Z,26.38
2023-02-14T13:35:00.555Z,27.70
2023-02-14T13:37:28.275Z,27.10
2023-02-14T13:39:59.123Z,28.63
2023-02-14T13:42:54.189Z,29.55
2023-02-14T13:45:40.772Z,29.98
2023-02-14T13:48:23.459Z,31.37
2023-02-14T13:51:03.785Z,29.63
2023-02-14T13:53:38.409Z,28.20
2023-02-14T13:56:16.902Z,33.00
2023-02-14T13:58:52.073Z,28.13
2023-02-14T14:01:33.985Z,28.93
2023-02-14T14:04:03.522Z,26.27
2023-02-14T14:06:30.423Z,27.98
2023-02-14T14:08:57.343Z,27.88
2023-02-14T14:11:23.960Z,27.30
2023-02-14T14:13:50.505Z,31.50
2023-02-14T14:16:20.531Z,27.20
2023-02-14T14:18:47.565Z,30.73
2023-02-14T14:21:29.178Z,27.30
2023-02-14T14:24:22.702Z,28.48
2023-02-14T14:27:06.572Z,28.50
2023-02-14T14:29:46.765Z,26.73
2023-02-14T14:32:37.891Z,30.42
2023-02-14T14:35:06.384Z,27.33
2023-02-14T14:37:45.616Z,27.58
2023-02-14T14:40:38.521Z,27.43
2023-02-14T14:43:23.191Z,29.33
2023-02-14T14:45:52.694Z,26.75
2023-02-14T14:48:27.459Z,26.58
2023-02-14T14:50:54.825Z,29.05
2023-02-14T14:53:29.066Z,31.17
2023-02-14T14:55:56.746Z,30.52
2023-02-14T14:58:42.123Z,33.95
2023-02-14T15:01:21.358Z,30.42
2023-02-14T15:03:48.272Z,26.90
2023-02-14T15:06:20.678Z,26.00
2023-02-14T15:08:49.121Z,29.38
2023-02-14T15:11:39.553Z,31.70
2023-02-14T15:14:13.275Z,28.02
2023-02-14T15:16:57.496Z,27.67
2023-02-14T15:19:37.196Z,30.60
2023-02-14T15:22:18.170Z,27.70
2023-02-14T15:24:45.265Z,25.25
2023-02-14T15:27:16.234Z,28.70
2023-02-14T15:29:52.334Z,30.05
2023-02-14T15:32:20.222Z,27.43
2023-02-14T15:34:47.267Z,27.38
2023-02-14T15:37:14.378Z,26.17
2023-02-14T15:39:46.661Z,27.83
2023-02-14T15:42:32.612Z,28.52
2023-02-14T15:45:26.006Z,32.70
2023-02-14T15:47:55.631Z,39.03
2023-02-14T15:50:29.592Z,28.05
2023-02-14T15:53:20.192Z,30.20
2023-02-14T15:55:49.648Z,29.40
2023-02-14T15:58:24.868Z,27.33
2023-02-14T16:00:53.385Z,28.30
2023-02-14T16:03:26.289Z,27.15
2023-02-14T16:05:54.727Z,28.85
2023-02-14T16:08:37.327Z,31.23
2023-02-14T16:11:14.591Z,29.07
2023-02-14T16:13:44.786Z,28.27
2023-02-14T16:16:13.764Z,25.90
2023-02-14T16:18:49.421Z,24.88
2023-02-14T16:21:18.079Z,27.02
2023-02-14T16:24:07.682Z,31.07
2023-02-14T16:26:38.066Z,31.67
2023-02-14T16:29:16.593Z,29.38
2023-02-14T16:34:37.509Z,30.63
2023-02-14T16:37:23.413Z,28.53
2023-02-14T16:39:52.918Z,31.05
2023-02-14T16:42:20.009Z,31.63
2023-02-14T16:44:46.999Z,29.48
2023-02-14T16:47:15.710Z,28.73
2023-02-14T16:49:42.403Z,26.23
2023-02-14T16:52:23.417Z,28.88
2023-02-14T16:54:50.303Z,29.02
2023-02-14T16:57:20.785Z,29.52
2023-02-14T16:59:47.546Z,34.08
2023-02-14T17:02:14.221Z,29.33
2023-02-14T17:04:41.063Z,29.30
2023-02-14T17:07:08.163Z,29.77
2023-02-14T17:09:41.284Z,30.70
2023-02-14T17:12:14.692Z,30.25
2023-02-14T17:14:44.035Z,31.40
2023-02-14T17:17:11.398Z,30.67
2023-02-14T17:19:38.195Z,32.20
2023-02-14T17:22:05.041Z,30.50
2023-02-14T17:24:32.261Z,27.77
2023-02-14T17:26:58.862Z,30.43
2023-02-14T17:29:25.528Z,30.75
2023-02-14T17:31:52.262Z,28.58
2023-02-14T17:34:19.159Z,29.88
2023-02-14T17:36:45.905Z,31.73
2023-02-14T17:39:12.561Z,30.47
2023-02-14T17:41:39.691Z,31.80
2023-02-14T17:44:07.264Z,28.63
2023-02-14T17:46:34.011Z,30.25
2023-02-14T17:49:02.593Z,31.23
2023-02-14T17:51:29.526Z,32.43
2023-02-14T17:53:58.805Z,34.75
2023-02-14T17:56:26.327Z,32.53
2023-02-14T17:58:54.991Z,31.85
2023-02-14T18:01:26.778Z,31.35
2023-02-14T18:03:54.261Z,33.93
2023-02-14T18:06:21.597Z,33.35
2023-02-14T18:08:50.420Z,33.53
2023-02-14T18:11:18.544Z,38.53
2023-02-14T18:13:45.236Z,32.75
2023-02-14T18:16:15.023Z,34.97
2023-02-14T18:18:42.185Z,37.80
2023-02-14T18:21:11.451Z,37.63
2023-02-14T18:23:38.496Z,32.65
2023-02-14T18:26:08.403Z,41.83
2023-02-14T18:28:36.090Z,39.10
2023-02-14T18:31:05.408Z,33.63
2023-02-14T18:33:33.240Z,33.25
2023-02-14T18:36:07.756Z,36.72
2023-02-14T18:38:35.340Z,40.28
2023-02-14T18:41:06.884Z,33.70
2023-02-14T18:43:33.643Z,32.65
2023-02-14T18:46:12.373Z,37.67
2023-02-14T18:48:40.124Z,37.97
2023-02-14T18:51:09.554Z,37.28
2023-02-14T18:53:40.753Z,37.60
2023-02-14T18:56:15.356Z,39.08
2023-02-14T18:58:46.070Z,39.25
2023-02-14T19:01:18.589Z,36.40
2023-02-14T19:03:45.589Z,35.80
2023-02-14T19:06:13.157Z,38.90
2023-02-14T19:08:40.587Z,38.95
2023-02-14T19:11:15.220Z,37.03
2023-02-14T19:13:53.563Z,37.17
2023-02-14T19:16:27.100Z,35.72
2023-02-14T19:18:54.425Z,37.87
2023-02-14T19:21:23.888Z,41.25
2023-02-14T19:23:53.115Z,37.08
2023-02-14T19:26:22.247Z,40.30
2023-02-14T19:28:53.644Z,45.13
2023-02-14T19:31:20.473Z,44.30
2023-02-14T19:33:48.059Z,39.20
2023-02-14T19:36:17.189Z,40.45
2023-02-14T19:38:46.450Z,37.90
2023-02-14T19:41:18.677Z,42.72
2023-02-14T19:43:46.259Z,38.30
2023-02-14T19:46:18.013Z,42.80
2023-02-14T19:48:44.868Z,41.10
2023-02-14T19:51:29.414Z,41.80
2023-02-14T19:53:57.963Z,41.33
2023-02-14T19:56:27.192Z,42.80
2023-02-14T19:58:55.958Z,48.50
2023-02-14T20:01:34.209Z,49.70
2023-02-14T20:04:01.071Z,47.05
2023-02-14T20:06:29.336Z,50.10
2023-02-14T20:08:56.191Z,46.60
2023-02-14T20:11:31.020Z,48.03
2023-02-14T20:13:58.489Z,52.58
2023-02-14T20:16:26.789Z,45.65
2023-02-14T20:18:54.018Z,57.80
2023-02-14T20:21:25.364Z,53.03
2023-02-14T20:23:52.219Z,48.42
2023-02-14T20:26:19.505Z,48.00
2023-02-14T20:28:46.298Z,43.72
2023-02-14T20:31:15.127Z,48.13
2023-02-14T20:33:41.891Z,44.07
2023-02-14T20:36:09.632Z,46.83
2023-02-14T20:38:36.294Z,48.88
2023-02-14T20:41:07.340Z,45.22
2023-02-14T20:43:34.179Z,47.10
2023-02-14T20:46:01.962Z,40.97
2023-02-14T20:48:29.527Z,46.15
2023-02-14T20:50:56.254Z,44.47
2023-02-14T20:53:23.411Z,40.70
2023-02-14T20:55:51.749Z,40.42
2023-02-14T20:58:19.732Z,40.67
2023-02-14T21:00:46.454Z,44.75
2023-02-14T21:03:13.022Z,43.78
2023-02-14T21:05:40.214Z,43.78
2023-02-14T21:08:06.860Z,42.38
2023-02-14T21:10:33.436Z,43.90
2023-02-14T21:13:00.106Z,43.80
2023-02-14T21:15:27.515Z,41.33
2023-02-14T21:17:54.235Z,42.40
2023-02-14T21:20:21.023Z,39.35
2023-02-14T21:22:47.580Z,38.40
2023-02-14T21:25:14.281Z,42.42
2023-02-14T21:27:41.268Z,42.47
2023-02-14T21:30:08.596Z,42.15
2023-02-14T21:32:35.196Z,41.50
2023-02-14T21:35:01.833Z,39.30
2023-02-14T21:37:28.388Z,38.58
2023-02-14T21:39:54.985Z,42.95
2023-02-14T21:42:21.666Z,42.53
2023-02-14T21:45:06.917Z,43.15
2023-02-14T21:47:37.676Z,42.07
2023-02-14T21:50:23.433Z,40.78
2023-02-14T21:52:50.004Z,40.03
2023-02-14T21:55:16.691Z,43.00
2023-02-14T21:57:43.379Z,42.55
2023-02-14T22:00:10.381Z,36.93
2023-02-14T22:02:38.734Z,43.25
2023-02-14T22:05:07.576Z,43.28
2023-02-14T22:07:35.085Z,38.97
2023-02-14T22:10:02.383Z,40.13
2023-02-14T22:12:29.701Z,45.77
2023-02-14T22:15:00.048Z,40.58
2023-02-14T22:17:27.351Z,38.90
2023-02-14T22:19:54.512Z,38.03
2023-02-14T22:22:21.444Z,41.10
2023-02-14T22:24:48.482Z,44.03
2023-02-14T22:27:16.068Z,43.90
2023-02-14T22:29:43.048Z,41.20
2023-02-14T22:32:09.978Z,41.83
2023-02-14T22:34:36.633Z,44.15
2023-02-14T22:37:03.238Z,43.23
2023-02-14T22:39:29.907Z,41.80
2023-02-14T22:41:56.626Z,42.35
2023-02-14T22:44:23.238Z,37.33
2023-02-14T22:46:50.209Z,41.33
2023-02-14T22:49:17.381Z,38.10
2023-02-14T22:51:44.350Z,43.10
2023-02-14T22:54:13.689Z,40.20
2023-02-14T22:56:43.370Z,45.90
2023-02-14T22:59:19.050Z,44.90
2023-02-14T23:01:46.124Z,46.00
2023-02-14T23:04:14.622Z,41.10
2023-02-14T23:06:41.350Z,44.97
2023-02-14T23:09:09.464Z,44.75
2023-02-14T23:11:37.843Z,43.17
2023-02-14T23:14:24.316Z,45.23
2023-02-14T23:17:09.930Z,47.42
2023-02-14T23:19:55.370Z,48.78
2023-02-14T23:22:26.346Z,45.13
2023-02-14T23:24:57.115Z,44.92
2023-02-14T23:27:31.727Z,44.87
2023-02-14T23:29:58.366Z,43.65
2023-02-14T23:32:24.990Z,49.85
2023-02-14T23:34:52.017Z,41.22
2023-02-14T23:37:19.825Z,48.63
2023-02-14T23:39:46.497Z,42.20
2023-02-14T23:42:14.780Z,48.90
2023-02-14T23:44:43.464Z,47.90
2023-02-14T23:47:10.637Z,50.72
2023-02-14T23:49:39.017Z,53.65
2023-02-14T23:52:07.966Z,51.30
2023-02-14T23:54:35.348Z,51.03
2023-02-14T23:57:03.377Z,50.80
2023-02-14T23:59:30.296Z,54.45
